Pagrindinis puslapis
METAR-TAF:

METAR-TAF

Oro uostai :

Tunisas, Tunisas

platuma: 36-50N, ilguma: 010-14E, Aukštis: 3 m

Dabartinis oras

Ataskaita buvo paskelbta 35 minutes, ne 23:00 UTC
Vėjas 4 kt iš Rytų, svyruoja nuo Šiaurės Rytų ir Pietų
Temperatūra 25°C
Drėgmė 89%
Slėgis 1017 hPa
Matomumas 10 km arba daugiau
Mažai debesys ne aukštis 2600 ft

METAR: DTTA 202300Z 10004KT 050V170 9999 FEW026 25/23 Q1017

Laikas: 00:35 (23:35 UTC)

Prognozė

Ataskaita buvo paskelbta 6 valandos ir 35 minutes, ne 17:00 UTC
Prognozė galioja nuo 20 metu 18 UTC su 21 metu 18 UTC
Vėjas 6 kt iš Rytų/Pietryčių
Matomumas 10 km arba daugiau
Mažai debesys ne aukštis 2600 ft
Tapsmas
nuo 21 metu 06 UTC su 21 metu 08 UTC
Vėjas 16 kt iš Pietų/Pietryčių

TAF: DTTA 201700Z 2018/2118 11006KT 9999 FEW026 BECMG 2106/2108 15016KT

Orai ataskaitas ir orų prognozės (METAR, TAF).

turimą stotys yra geltonos ir raudonos taškus žemėlapyje.

Perkelti pele per norėdami pamatyti stoties vardą.

Tada spustelėkite, norėdami matyti oro stebėjimo ir prognozės.

Norėdami pakeisti žemėlapį: spustelėkite ant žalios mygtukų su juodo kryžiaus žemyn,; žalią mygtuką su brūkšneliu, jei norite nutolinti; arba žalių rodyklių gretimoms žemėlapius.


METAR-TAF: